sensor_id;sensor_type;location;lat;lon;timestamp;P1;durP1;ratioP1;P2;durP2;ratioP2
10244;SDS011;5167;52.164;10.530;2023-06-24T00:00:59;9.98;;;6.45;;
10244;SDS011;5167;52.164;10.530;2023-06-24T00:03:24;13.63;;;7.93;;
10244;SDS011;5167;52.164;10.530;2023-06-24T00:05:50;14.77;;;7.25;;
10244;SDS011;5167;52.164;10.530;2023-06-24T00:08:16;12.32;;;6.57;;
10244;SDS011;5167;52.164;10.530;2023-06-24T00:10:44;17.77;;;7.70;;
10244;SDS011;5167;52.164;10.530;2023-06-24T00:13:11;11.65;;;7.63;;
10244;SDS011;5167;52.164;10.530;2023-06-24T00:15:37;12.02;;;7.22;;
10244;SDS011;5167;52.164;10.530;2023-06-24T00:18:07;12.77;;;7.40;;
10244;SDS011;5167;52.164;10.530;2023-06-24T00:20:36;11.48;;;7.25;;
10244;SDS011;5167;52.164;10.530;2023-06-24T00:23:02;11.38;;;6.80;;
10244;SDS011;5167;52.164;10.530;2023-06-24T00:25:28;14.40;;;7.63;;
10244;SDS011;5167;52.164;10.530;2023-06-24T00:27:57;13.60;;;7.38;;
10244;SDS011;5167;52.164;10.530;2023-06-24T00:30:23;18.77;;;8.25;;
10244;SDS011;5167;52.164;10.530;2023-06-24T00:32:48;12.25;;;7.88;;
10244;SDS011;5167;52.164;10.530;2023-06-24T00:35:14;13.57;;;7.20;;
10244;SDS011;5167;52.164;10.530;2023-06-24T00:37:40;14.02;;;7.35;;
10244;SDS011;5167;52.164;10.530;2023-06-24T00:40:08;13.27;;;7.38;;
10244;SDS011;5167;52.164;10.530;2023-06-24T00:42:39;9.77;;;7.32;;
10244;SDS011;5167;52.164;10.530;2023-06-24T00:45:06;12.07;;;7.13;;
10244;SDS011;5167;52.164;10.530;2023-06-24T00:47:32;10.27;;;7.47;;
10244;SDS011;5167;52.164;10.530;2023-06-24T00:49:59;11.77;;;7.78;;
10244;SDS011;5167;52.164;10.530;2023-06-24T00:52:25;14.30;;;7.75;;
10244;SDS011;5167;52.164;10.530;2023-06-24T00:54:50;12.30;;;8.13;;
10244;SDS011;5167;52.164;10.530;2023-06-24T00:57:16;12.00;;;7.80;;
10244;SDS011;5167;52.164;10.530;2023-06-24T00:59:44;12.93;;;7.57;;
10244;SDS011;5167;52.164;10.530;2023-06-24T01:02:11;19.23;;;8.25;;
10244;SDS011;5167;52.164;10.530;2023-06-24T01:04:37;11.63;;;8.10;;
10244;SDS011;5167;52.164;10.530;2023-06-24T01:07:03;15.95;;;8.27;;
10244;SDS011;5167;52.164;10.530;2023-06-24T01:09:30;15.80;;;9.45;;
10244;SDS011;5167;52.164;10.530;2023-06-24T01:11:56;15.23;;;8.82;;
10244;SDS011;5167;52.164;10.530;2023-06-24T01:14:21;15.93;;;9.32;;
10244;SDS011;5167;52.164;10.530;2023-06-24T01:16:53;13.80;;;8.98;;
10244;SDS011;5167;52.164;10.530;2023-06-24T01:28:06;17.17;;;9.55;;
10244;SDS011;5167;52.164;10.530;2023-06-24T01:33:56;18.38;;;10.13;;
10244;SDS011;5167;52.164;10.530;2023-06-24T01:36:25;19.00;;;8.85;;
10244;SDS011;5167;52.164;10.530;2023-06-24T01:38:56;16.45;;;9.32;;
10244;SDS011;5167;52.164;10.530;2023-06-24T01:41:26;15.43;;;8.70;;
10244;SDS011;5167;52.164;10.530;2023-06-24T01:44:08;13.90;;;8.38;;
10244;SDS011;5167;52.164;10.530;2023-06-24T01:46:37;12.68;;;8.50;;
10244;SDS011;5167;52.164;10.530;2023-06-24T01:49:05;15.43;;;10.18;;
10244;SDS011;5167;52.164;10.530;2023-06-24T01:51:35;15.32;;;9.10;;
10244;SDS011;5167;52.164;10.530;2023-06-24T01:54:04;15.57;;;8.82;;
10244;SDS011;5167;52.164;10.530;2023-06-24T01:56:35;19.35;;;9.13;;
10244;SDS011;5167;52.164;10.530;2023-06-24T01:59:02;21.23;;;9.68;;
10244;SDS011;5167;52.164;10.530;2023-06-24T02:01:29;16.15;;;9.05;;
10244;SDS011;5167;52.164;10.530;2023-06-24T02:03:58;19.25;;;9.65;;
10244;SDS011;5167;52.164;10.530;2023-06-24T02:06:26;15.85;;;9.63;;
10244;SDS011;5167;52.164;10.530;2023-06-24T02:08:54;14.18;;;9.25;;
10244;SDS011;5167;52.164;10.530;2023-06-24T02:11:23;14.57;;;8.63;;
10244;SDS011;5167;52.164;10.530;2023-06-24T02:13:49;17.98;;;9.57;;
10244;SDS011;5167;52.164;10.530;2023-06-24T02:16:18;12.52;;;8.60;;
10244;SDS011;5167;52.164;10.530;2023-06-24T02:18:46;11.77;;;8.63;;
10244;SDS011;5167;52.164;10.530;2023-06-24T02:21:12;14.88;;;9.05;;
10244;SDS011;5167;52.164;10.530;2023-06-24T02:23:39;14.32;;;8.73;;
10244;SDS011;5167;52.164;10.530;2023-06-24T02:26:06;11.65;;;8.23;;
10244;SDS011;5167;52.164;10.530;2023-06-24T02:28:33;14.07;;;8.45;;
10244;SDS011;5167;52.164;10.530;2023-06-24T02:30:59;16.27;;;8.40;;
10244;SDS011;5167;52.164;10.530;2023-06-24T02:33:25;14.20;;;8.05;;
10244;SDS011;5167;52.164;10.530;2023-06-24T02:35:51;12.82;;;8.77;;
10244;SDS011;5167;52.164;10.530;2023-06-24T02:38:17;12.45;;;7.90;;
10244;SDS011;5167;52.164;10.530;2023-06-24T02:40:43;13.73;;;7.43;;
10244;SDS011;5167;52.164;10.530;2023-06-24T02:43:10;11.23;;;7.88;;
10244;SDS011;5167;52.164;10.530;2023-06-24T02:45:36;14.27;;;8.43;;
10244;SDS011;5167;52.164;10.530;2023-06-24T02:48:03;14.55;;;7.95;;
10244;SDS011;5167;52.164;10.530;2023-06-24T02:50:30;15.00;;;7.95;;
10244;SDS011;5167;52.164;10.530;2023-06-24T02:52:56;11.18;;;7.85;;
10244;SDS011;5167;52.164;10.530;2023-06-24T02:55:22;10.70;;;7.47;;
10244;SDS011;5167;52.164;10.530;2023-06-24T02:57:48;12.82;;;7.25;;
10244;SDS011;5167;52.164;10.530;2023-06-24T03:00:15;14.10;;;8.00;;
10244;SDS011;5167;52.164;10.530;2023-06-24T03:02:41;11.15;;;7.15;;
10244;SDS011;5167;52.164;10.530;2023-06-24T03:05:10;11.35;;;7.47;;
10244;SDS011;5167;52.164;10.530;2023-06-24T03:07:36;11.32;;;7.75;;
10244;SDS011;5167;52.164;10.530;2023-06-24T03:10:03;13.73;;;7.80;;
10244;SDS011;5167;52.164;10.530;2023-06-24T03:12:30;11.00;;;8.57;;
10244;SDS011;5167;52.164;10.530;2023-06-24T03:14:56;13.10;;;7.75;;
10244;SDS011;5167;52.164;10.530;2023-06-24T03:17:22;12.48;;;7.63;;
10244;SDS011;5167;52.164;10.530;2023-06-24T03:19:48;15.20;;;7.82;;
10244;SDS011;5167;52.164;10.530;2023-06-24T03:22:13;15.82;;;7.40;;
10244;SDS011;5167;52.164;10.530;2023-06-24T03:24:39;11.90;;;7.35;;
10244;SDS011;5167;52.164;10.530;2023-06-24T03:27:04;10.63;;;7.40;;
10244;SDS011;5167;52.164;10.530;2023-06-24T03:29:30;10.57;;;6.97;;
10244;SDS011;5167;52.164;10.530;2023-06-24T03:31:55;11.35;;;7.55;;
10244;SDS011;5167;52.164;10.530;2023-06-24T03:34:21;13.55;;;7.80;;
10244;SDS011;5167;52.164;10.530;2023-06-24T03:36:46;12.05;;;7.43;;
10244;SDS011;5167;52.164;10.530;2023-06-24T03:39:12;13.98;;;7.70;;
10244;SDS011;5167;52.164;10.530;2023-06-24T03:41:37;11.02;;;6.80;;
10244;SDS011;5167;52.164;10.530;2023-06-24T03:44:04;19.48;;;8.02;;
10244;SDS011;5167;52.164;10.530;2023-06-24T03:46:29;10.65;;;7.63;;
10244;SDS011;5167;52.164;10.530;2023-06-24T03:48:57;10.60;;;7.03;;
10244;SDS011;5167;52.164;10.530;2023-06-24T03:51:23;19.25;;;8.70;;
10244;SDS011;5167;52.164;10.530;2023-06-24T03:53:49;11.60;;;7.47;;
10244;SDS011;5167;52.164;10.530;2023-06-24T03:56:15;13.88;;;8.55;;
10244;SDS011;5167;52.164;10.530;2023-06-24T03:58:41;17.05;;;8.00;;
10244;SDS011;5167;52.164;10.530;2023-06-24T04:01:06;13.57;;;8.23;;
10244;SDS011;5167;52.164;10.530;2023-06-24T04:03:31;10.85;;;7.15;;
10244;SDS011;5167;52.164;10.530;2023-06-24T04:05:57;9.93;;;7.18;;
10244;SDS011;5167;52.164;10.530;2023-06-24T04:08:23;10.93;;;7.70;;
10244;SDS011;5167;52.164;10.530;2023-06-24T04:10:54;11.65;;;7.60;;
10244;SDS011;5167;52.164;10.530;2023-06-24T04:13:20;13.02;;;8.35;;
10244;SDS011;5167;52.164;10.530;2023-06-24T04:15:45;11.30;;;8.00;;
10244;SDS011;5167;52.164;10.530;2023-06-24T04:18:11;11.40;;;7.68;;
10244;SDS011;5167;52.164;10.530;2023-06-24T04:20:36;17.92;;;7.65;;
10244;SDS011;5167;52.164;10.530;2023-06-24T04:23:03;10.98;;;7.55;;
10244;SDS011;5167;52.164;10.530;2023-06-24T04:25:29;16.77;;;7.88;;
10244;SDS011;5167;52.164;10.530;2023-06-24T04:27:55;11.73;;;7.22;;
10244;SDS011;5167;52.164;10.530;2023-06-24T04:30:20;13.45;;;6.80;;
10244;SDS011;5167;52.164;10.530;2023-06-24T04:32:45;10.50;;;7.68;;
10244;SDS011;5167;52.164;10.530;2023-06-24T04:35:11;14.68;;;7.32;;
10244;SDS011;5167;52.164;10.530;2023-06-24T04:37:36;13.05;;;7.88;;
10244;SDS011;5167;52.164;10.530;2023-06-24T04:40:02;13.52;;;7.65;;
10244;SDS011;5167;52.164;10.530;2023-06-24T04:42:28;12.30;;;8.07;;
10244;SDS011;5167;52.164;10.530;2023-06-24T04:44:53;12.68;;;7.65;;
10244;SDS011;5167;52.164;10.530;2023-06-24T04:47:19;12.52;;;7.25;;
10244;SDS011;5167;52.164;10.530;2023-06-24T04:49:44;12.38;;;7.55;;
10244;SDS011;5167;52.164;10.530;2023-06-24T04:52:10;16.48;;;6.82;;
10244;SDS011;5167;52.164;10.530;2023-06-24T04:54:36;11.38;;;6.63;;
10244;SDS011;5167;52.164;10.530;2023-06-24T04:57:02;10.25;;;6.15;;
10244;SDS011;5167;52.164;10.530;2023-06-24T04:59:30;11.63;;;6.72;;
10244;SDS011;5167;52.164;10.530;2023-06-24T05:01:56;17.05;;;7.45;;
10244;SDS011;5167;52.164;10.530;2023-06-24T05:04:21;10.90;;;6.65;;
10244;SDS011;5167;52.164;10.530;2023-06-24T05:06:47;12.35;;;7.20;;
10244;SDS011;5167;52.164;10.530;2023-06-24T05:09:13;14.68;;;7.13;;
10244;SDS011;5167;52.164;10.530;2023-06-24T05:11:39;13.93;;;7.28;;
10244;SDS011;5167;52.164;10.530;2023-06-24T05:14:05;12.25;;;7.88;;
10244;SDS011;5167;52.164;10.530;2023-06-24T05:16:30;11.05;;;7.53;;
10244;SDS011;5167;52.164;10.530;2023-06-24T05:18:56;12.45;;;7.28;;
10244;SDS011;5167;52.164;10.530;2023-06-24T05:21:22;14.18;;;7.47;;
10244;SDS011;5167;52.164;10.530;2023-06-24T05:23:47;14.35;;;7.72;;
10244;SDS011;5167;52.164;10.530;2023-06-24T05:26:13;11.63;;;7.20;;
10244;SDS011;5167;52.164;10.530;2023-06-24T05:28:39;16.25;;;7.53;;
10244;SDS011;5167;52.164;10.530;2023-06-24T05:31:04;15.52;;;7.65;;
10244;SDS011;5167;52.164;10.530;2023-06-24T05:33:30;18.65;;;9.07;;
10244;SDS011;5167;52.164;10.530;2023-06-24T05:35:55;11.35;;;7.63;;
10244;SDS011;5167;52.164;10.530;2023-06-24T05:38:21;10.38;;;7.45;;
10244;SDS011;5167;52.164;10.530;2023-06-24T05:40:46;13.73;;;7.72;;
10244;SDS011;5167;52.164;10.530;2023-06-24T05:43:12;11.50;;;7.35;;
10244;SDS011;5167;52.164;10.530;2023-06-24T05:45:37;12.48;;;7.57;;
10244;SDS011;5167;52.164;10.530;2023-06-24T05:48:03;11.82;;;7.25;;
10244;SDS011;5167;52.164;10.530;2023-06-24T05:50:29;13.80;;;7.22;;
10244;SDS011;5167;52.164;10.530;2023-06-24T05:52:54;12.55;;;6.75;;
10244;SDS011;5167;52.164;10.530;2023-06-24T05:55:20;11.18;;;6.38;;
10244;SDS011;5167;52.164;10.530;2023-06-24T05:57:45;14.93;;;6.95;;
10244;SDS011;5167;52.164;10.530;2023-06-24T06:00:11;11.38;;;6.68;;
10244;SDS011;5167;52.164;10.530;2023-06-24T06:02:38;12.75;;;6.72;;
10244;SDS011;5167;52.164;10.530;2023-06-24T06:05:03;10.57;;;6.43;;
10244;SDS011;5167;52.164;10.530;2023-06-24T06:07:29;13.73;;;6.97;;
10244;SDS011;5167;52.164;10.530;2023-06-24T06:09:54;12.68;;;6.30;;
10244;SDS011;5167;52.164;10.530;2023-06-24T06:12:20;10.68;;;6.63;;
10244;SDS011;5167;52.164;10.530;2023-06-24T06:14:46;12.25;;;6.47;;
10244;SDS011;5167;52.164;10.530;2023-06-24T06:17:12;9.13;;;6.25;;
10244;SDS011;5167;52.164;10.530;2023-06-24T06:19:38;11.32;;;6.60;;
10244;SDS011;5167;52.164;10.530;2023-06-24T06:22:06;10.13;;;6.95;;
10244;SDS011;5167;52.164;10.530;2023-06-24T06:24:32;14.25;;;7.03;;
10244;SDS011;5167;52.164;10.530;2023-06-24T06:26:58;10.00;;;6.15;;
10244;SDS011;5167;52.164;10.530;2023-06-24T06:29:24;11.60;;;7.00;;
10244;SDS011;5167;52.164;10.530;2023-06-24T06:31:50;12.70;;;6.70;;
10244;SDS011;5167;52.164;10.530;2023-06-24T06:34:15;10.10;;;5.57;;
10244;SDS011;5167;52.164;10.530;2023-06-24T06:36:41;7.95;;;6.10;;
10244;SDS011;5167;52.164;10.530;2023-06-24T06:39:06;12.20;;;6.68;;
10244;SDS011;5167;52.164;10.530;2023-06-24T06:41:32;10.93;;;6.43;;
10244;SDS011;5167;52.164;10.530;2023-06-24T06:43:57;13.20;;;5.80;;
10244;SDS011;5167;52.164;10.530;2023-06-24T06:46:22;12.38;;;5.75;;
10244;SDS011;5167;52.164;10.530;2023-06-24T06:48:48;7.85;;;4.90;;
10244;SDS011;5167;52.164;10.530;2023-06-24T06:51:13;9.50;;;5.10;;
10244;SDS011;5167;52.164;10.530;2023-06-24T06:53:39;7.85;;;4.88;;
10244;SDS011;5167;52.164;10.530;2023-06-24T06:56:04;8.27;;;6.07;;
10244;SDS011;5167;52.164;10.530;2023-06-24T06:58:30;9.43;;;5.13;;
10244;SDS011;5167;52.164;10.530;2023-06-24T07:00:55;8.55;;;4.95;;
10244;SDS011;5167;52.164;10.530;2023-06-24T07:03:26;11.95;;;5.50;;
10244;SDS011;5167;52.164;10.530;2023-06-24T07:05:53;9.35;;;5.30;;
10244;SDS011;5167;52.164;10.530;2023-06-24T07:08:18;10.00;;;5.90;;
10244;SDS011;5167;52.164;10.530;2023-06-24T07:10:44;11.88;;;6.90;;
10244;SDS011;5167;52.164;10.530;2023-06-24T07:13:09;10.13;;;6.05;;
10244;SDS011;5167;52.164;10.530;2023-06-24T07:15:35;8.52;;;5.97;;
10244;SDS011;5167;52.164;10.530;2023-06-24T07:18:00;14.48;;;6.40;;
10244;SDS011;5167;52.164;10.530;2023-06-24T07:20:26;12.98;;;7.13;;
10244;SDS011;5167;52.164;10.530;2023-06-24T07:22:51;13.00;;;6.72;;
10244;SDS011;5167;52.164;10.530;2023-06-24T07:25:17;15.82;;;6.63;;
10244;SDS011;5167;52.164;10.530;2023-06-24T07:27:42;14.25;;;7.70;;
10244;SDS011;5167;52.164;10.530;2023-06-24T07:30:08;10.70;;;6.80;;
10244;SDS011;5167;52.164;10.530;2023-06-24T07:32:34;11.88;;;6.90;;
10244;SDS011;5167;52.164;10.530;2023-06-24T07:34:59;9.02;;;5.95;;
10244;SDS011;5167;52.164;10.530;2023-06-24T07:37:24;10.18;;;7.00;;
10244;SDS011;5167;52.164;10.530;2023-06-24T07:39:50;13.55;;;7.20;;
10244;SDS011;5167;52.164;10.530;2023-06-24T07:42:16;11.57;;;8.57;;
10244;SDS011;5167;52.164;10.530;2023-06-24T07:44:44;11.70;;;6.82;;
10244;SDS011;5167;52.164;10.530;2023-06-24T07:47:10;10.15;;;7.15;;
10244;SDS011;5167;52.164;10.530;2023-06-24T07:49:36;10.45;;;6.85;;
10244;SDS011;5167;52.164;10.530;2023-06-24T07:52:01;12.55;;;7.22;;
10244;SDS011;5167;52.164;10.530;2023-06-24T07:54:27;15.10;;;6.68;;
10244;SDS011;5167;52.164;10.530;2023-06-24T07:56:52;16.85;;;8.48;;
10244;SDS011;5167;52.164;10.530;2023-06-24T07:59:18;10.85;;;7.35;;
10244;SDS011;5167;52.164;10.530;2023-06-24T08:01:43;12.20;;;7.78;;
10244;SDS011;5167;52.164;10.530;2023-06-24T08:04:09;17.70;;;7.97;;
10244;SDS011;5167;52.164;10.530;2023-06-24T08:06:34;12.02;;;7.80;;
10244;SDS011;5167;52.164;10.530;2023-06-24T08:09:00;12.43;;;7.10;;
10244;SDS011;5167;52.164;10.530;2023-06-24T08:11:25;14.77;;;7.60;;
10244;SDS011;5167;52.164;10.530;2023-06-24T08:13:51;11.68;;;6.70;;
10244;SDS011;5167;52.164;10.530;2023-06-24T08:16:17;9.80;;;6.72;;
10244;SDS011;5167;52.164;10.530;2023-06-24T08:18:45;14.05;;;7.28;;
10244;SDS011;5167;52.164;10.530;2023-06-24T08:21:11;12.90;;;6.25;;
10244;SDS011;5167;52.164;10.530;2023-06-24T08:23:36;10.02;;;6.05;;
10244;SDS011;5167;52.164;10.530;2023-06-24T08:26:02;8.43;;;6.25;;
10244;SDS011;5167;52.164;10.530;2023-06-24T08:28:27;7.95;;;5.38;;
10244;SDS011;5167;52.164;10.530;2023-06-24T08:30:53;11.93;;;4.97;;
10244;SDS011;5167;52.164;10.530;2023-06-24T08:33:18;5.90;;;4.20;;
10244;SDS011;5167;52.164;10.530;2023-06-24T08:35:44;5.10;;;4.22;;
10244;SDS011;5167;52.164;10.530;2023-06-24T08:38:09;7.10;;;3.83;;
10244;SDS011;5167;52.164;10.530;2023-06-24T08:40:35;4.10;;;3.55;;
10244;SDS011;5167;52.164;10.530;2023-06-24T08:43:04;5.82;;;3.25;;
10244;SDS011;5167;52.164;10.530;2023-06-24T08:45:30;9.18;;;3.65;;
10244;SDS011;5167;52.164;10.530;2023-06-24T08:47:56;8.00;;;3.45;;
10244;SDS011;5167;52.164;10.530;2023-06-24T08:50:23;8.18;;;3.35;;
10244;SDS011;5167;52.164;10.530;2023-06-24T08:52:55;5.43;;;3.17;;
10244;SDS011;5167;52.164;10.530;2023-06-24T08:55:22;3.83;;;2.70;;
10244;SDS011;5167;52.164;10.530;2023-06-24T08:57:48;5.97;;;3.65;;
10244;SDS011;5167;52.164;10.530;2023-06-24T09:00:14;4.43;;;2.83;;
10244;SDS011;5167;52.164;10.530;2023-06-24T09:02:40;4.60;;;2.85;;
10244;SDS011;5167;52.164;10.530;2023-06-24T09:05:06;3.25;;;2.70;;
10244;SDS011;5167;52.164;10.530;2023-06-24T09:07:32;5.03;;;2.88;;
10244;SDS011;5167;52.164;10.530;2023-06-24T09:09:58;3.63;;;3.08;;
10244;SDS011;5167;52.164;10.530;2023-06-24T09:12:25;5.53;;;2.95;;
10244;SDS011;5167;52.164;10.530;2023-06-24T09:14:52;3.45;;;3.15;;
10244;SDS011;5167;52.164;10.530;2023-06-24T09:17:18;7.13;;;3.10;;
10244;SDS011;5167;52.164;10.530;2023-06-24T09:19:47;5.63;;;3.25;;
10244;SDS011;5167;52.164;10.530;2023-06-24T09:22:13;5.60;;;3.03;;
10244;SDS011;5167;52.164;10.530;2023-06-24T09:24:42;3.63;;;3.33;;
10244;SDS011;5167;52.164;10.530;2023-06-24T09:27:16;4.00;;;2.88;;
10244;SDS011;5167;52.164;10.530;2023-06-24T09:29:45;4.93;;;3.10;;
10244;SDS011;5167;52.164;10.530;2023-06-24T09:32:12;3.83;;;2.90;;
10244;SDS011;5167;52.164;10.530;2023-06-24T09:34:38;4.43;;;2.95;;
10244;SDS011;5167;52.164;10.530;2023-06-24T09:37:04;5.75;;;3.05;;
10244;SDS011;5167;52.164;10.530;2023-06-24T09:39:34;3.30;;;2.92;;
10244;SDS011;5167;52.164;10.530;2023-06-24T09:42:02;4.95;;;3.33;;
10244;SDS011;5167;52.164;10.530;2023-06-24T09:44:29;4.55;;;2.85;;
10244;SDS011;5167;52.164;10.530;2023-06-24T09:46:55;4.38;;;2.75;;
10244;SDS011;5167;52.164;10.530;2023-06-24T09:49:21;5.43;;;2.70;;
10244;SDS011;5167;52.164;10.530;2023-06-24T09:51:48;3.38;;;3.00;;
10244;SDS011;5167;52.164;10.530;2023-06-24T09:54:15;3.88;;;2.80;;
10244;SDS011;5167;52.164;10.530;2023-06-24T09:56:50;4.05;;;2.55;;
10244;SDS011;5167;52.164;10.530;2023-06-24T09:59:18;2.50;;;2.28;;
10244;SDS011;5167;52.164;10.530;2023-06-24T10:01:45;4.63;;;2.50;;
10244;SDS011;5167;52.164;10.530;2023-06-24T10:04:15;4.40;;;2.70;;
10244;SDS011;5167;52.164;10.530;2023-06-24T10:06:42;3.53;;;2.60;;
10244;SDS011;5167;52.164;10.530;2023-06-24T10:09:08;3.25;;;2.60;;
10244;SDS011;5167;52.164;10.530;2023-06-24T10:11:34;7.22;;;2.92;;
10244;SDS011;5167;52.164;10.530;2023-06-24T10:13:59;3.00;;;2.40;;
10244;SDS011;5167;52.164;10.530;2023-06-24T10:16:25;3.97;;;2.63;;
10244;SDS011;5167;52.164;10.530;2023-06-24T10:18:51;4.82;;;3.20;;
10244;SDS011;5167;52.164;10.530;2023-06-24T10:21:16;3.17;;;2.88;;
10244;SDS011;5167;52.164;10.530;2023-06-24T10:23:43;4.18;;;2.55;;
10244;SDS011;5167;52.164;10.530;2023-06-24T10:26:22;3.85;;;2.35;;
10244;SDS011;5167;52.164;10.530;2023-06-24T10:36:53;3.03;;;2.78;;
10244;SDS011;5167;52.164;10.530;2023-06-24T10:39:34;3.42;;;2.75;;
10244;SDS011;5167;52.164;10.530;2023-06-24T10:42:24;3.20;;;2.67;;
10244;SDS011;5167;52.164;10.530;2023-06-24T10:47:55;2.65;;;2.40;;
10244;SDS011;5167;52.164;10.530;2023-06-24T10:50:25;5.57;;;3.08;;
10244;SDS011;5167;52.164;10.530;2023-06-24T10:52:51;3.17;;;2.40;;
10244;SDS011;5167;52.164;10.530;2023-06-24T10:55:21;6.88;;;3.10;;
10244;SDS011;5167;52.164;10.530;2023-06-24T10:57:49;5.30;;;2.60;;
10244;SDS011;5167;52.164;10.530;2023-06-24T11:00:15;5.25;;;2.75;;
10244;SDS011;5167;52.164;10.530;2023-06-24T11:02:41;3.60;;;2.65;;
10244;SDS011;5167;52.164;10.530;2023-06-24T11:05:07;4.45;;;3.03;;
10244;SDS011;5167;52.164;10.530;2023-06-24T11:07:34;4.72;;;3.08;;
10244;SDS011;5167;52.164;10.530;2023-06-24T11:10:02;5.18;;;2.65;;
10244;SDS011;5167;52.164;10.530;2023-06-24T11:12:32;4.30;;;3.58;;
10244;SDS011;5167;52.164;10.530;2023-06-24T11:15:00;4.38;;;2.70;;
10244;SDS011;5167;52.164;10.530;2023-06-24T11:17:27;3.20;;;2.50;;
10244;SDS011;5167;52.164;10.530;2023-06-24T11:19:53;3.47;;;2.90;;
10244;SDS011;5167;52.164;10.530;2023-06-24T11:22:20;3.80;;;2.78;;
10244;SDS011;5167;52.164;10.530;2023-06-24T11:24:46;4.63;;;2.50;;
10244;SDS011;5167;52.164;10.530;2023-06-24T11:27:11;2.88;;;2.67;;
10244;SDS011;5167;52.164;10.530;2023-06-24T11:29:37;5.35;;;2.90;;
10244;SDS011;5167;52.164;10.530;2023-06-24T11:32:07;2.95;;;2.65;;
10244;SDS011;5167;52.164;10.530;2023-06-24T11:34:33;3.45;;;2.70;;
10244;SDS011;5167;52.164;10.530;2023-06-24T11:37:08;3.72;;;2.40;;
10244;SDS011;5167;52.164;10.530;2023-06-24T11:39:37;2.70;;;2.50;;
10244;SDS011;5167;52.164;10.530;2023-06-24T11:42:05;5.82;;;2.63;;
10244;SDS011;5167;52.164;10.530;2023-06-24T11:44:33;7.97;;;2.85;;
10244;SDS011;5167;52.164;10.530;2023-06-24T11:47:05;2.70;;;2.50;;
10244;SDS011;5167;52.164;10.530;2023-06-24T11:49:31;5.00;;;2.50;;
10244;SDS011;5167;52.164;10.530;2023-06-24T11:51:57;3.85;;;3.53;;
10244;SDS011;5167;52.164;10.530;2023-06-24T11:54:22;3.58;;;2.80;;
10244;SDS011;5167;52.164;10.530;2023-06-24T11:56:52;8.90;;;3.55;;
10244;SDS011;5167;52.164;10.530;2023-06-24T11:59:22;3.97;;;2.80;;
10244;SDS011;5167;52.164;10.530;2023-06-24T12:01:57;3.80;;;2.83;;
10244;SDS011;5167;52.164;10.530;2023-06-24T12:04:28;3.47;;;3.00;;
10244;SDS011;5167;52.164;10.530;2023-06-24T12:06:57;5.45;;;2.88;;
10244;SDS011;5167;52.164;10.530;2023-06-24T12:09:23;5.13;;;2.75;;
10244;SDS011;5167;52.164;10.530;2023-06-24T12:11:49;2.78;;;2.58;;
10244;SDS011;5167;52.164;10.530;2023-06-24T12:14:15;3.58;;;3.00;;
10244;SDS011;5167;52.164;10.530;2023-06-24T12:16:41;3.65;;;2.90;;
10244;SDS011;5167;52.164;10.530;2023-06-24T12:19:06;5.43;;;3.08;;
10244;SDS011;5167;52.164;10.530;2023-06-24T12:21:32;6.90;;;2.70;;
10244;SDS011;5167;52.164;10.530;2023-06-24T12:23:58;3.20;;;2.90;;
10244;SDS011;5167;52.164;10.530;2023-06-24T12:26:24;4.40;;;2.80;;
10244;SDS011;5167;52.164;10.530;2023-06-24T12:28:49;3.75;;;3.00;;
10244;SDS011;5167;52.164;10.530;2023-06-24T12:31:15;8.07;;;2.92;;
10244;SDS011;5167;52.164;10.530;2023-06-24T12:33:40;5.30;;;3.28;;
10244;SDS011;5167;52.164;10.530;2023-06-24T12:36:06;5.93;;;4.25;;
10244;SDS011;5167;52.164;10.530;2023-06-24T12:38:31;5.22;;;4.03;;
10244;SDS011;5167;52.164;10.530;2023-06-24T12:40:57;3.75;;;3.10;;
10244;SDS011;5167;52.164;10.530;2023-06-24T12:43:23;8.55;;;4.63;;
10244;SDS011;5167;52.164;10.530;2023-06-24T12:45:48;3.75;;;3.25;;
10244;SDS011;5167;52.164;10.530;2023-06-24T12:48:15;5.43;;;3.00;;
10244;SDS011;5167;52.164;10.530;2023-06-24T12:50:41;4.40;;;3.03;;
10244;SDS011;5167;52.164;10.530;2023-06-24T12:53:06;4.03;;;3.10;;
10244;SDS011;5167;52.164;10.530;2023-06-24T12:55:32;3.08;;;2.70;;
10244;SDS011;5167;52.164;10.530;2023-06-24T12:57:58;4.13;;;2.80;;
10244;SDS011;5167;52.164;10.530;2023-06-24T13:00:24;5.93;;;2.95;;
10244;SDS011;5167;52.164;10.530;2023-06-24T13:02:50;4.95;;;2.60;;
10244;SDS011;5167;52.164;10.530;2023-06-24T13:05:16;3.55;;;3.10;;
10244;SDS011;5167;52.164;10.530;2023-06-24T13:07:42;6.65;;;3.20;;
10244;SDS011;5167;52.164;10.530;2023-06-24T13:10:08;4.75;;;2.47;;
10244;SDS011;5167;52.164;10.530;2023-06-24T13:12:35;4.65;;;2.92;;
10244;SDS011;5167;52.164;10.530;2023-06-24T13:15:01;3.97;;;2.45;;
10244;SDS011;5167;52.164;10.530;2023-06-24T13:17:30;4.00;;;3.20;;
10244;SDS011;5167;52.164;10.530;2023-06-24T13:19:56;4.50;;;3.08;;
10244;SDS011;5167;52.164;10.530;2023-06-24T13:22:22;4.68;;;3.00;;
10244;SDS011;5167;52.164;10.530;2023-06-24T13:24:48;3.28;;;2.92;;
10244;SDS011;5167;52.164;10.530;2023-06-24T13:27:13;6.70;;;3.35;;
10244;SDS011;5167;52.164;10.530;2023-06-24T13:29:39;4.97;;;3.55;;
10244;SDS011;5167;52.164;10.530;2023-06-24T13:32:04;3.30;;;3.00;;
10244;SDS011;5167;52.164;10.530;2023-06-24T13:34:30;3.83;;;3.10;;
10244;SDS011;5167;52.164;10.530;2023-06-24T13:36:56;4.28;;;3.58;;
10244;SDS011;5167;52.164;10.530;2023-06-24T13:39:21;5.65;;;3.88;;
10244;SDS011;5167;52.164;10.530;2023-06-24T13:41:48;4.75;;;3.05;;
10244;SDS011;5167;52.164;10.530;2023-06-24T13:44:14;4.82;;;3.40;;
10244;SDS011;5167;52.164;10.530;2023-06-24T13:46:40;5.55;;;2.75;;
10244;SDS011;5167;52.164;10.530;2023-06-24T13:49:06;4.30;;;3.20;;
10244;SDS011;5167;52.164;10.530;2023-06-24T13:51:31;3.72;;;2.97;;
10244;SDS011;5167;52.164;10.530;2023-06-24T13:53:57;3.28;;;2.72;;
10244;SDS011;5167;52.164;10.530;2023-06-24T13:56:23;5.97;;;4.00;;
10244;SDS011;5167;52.164;10.530;2023-06-24T13:58:49;4.72;;;3.58;;
10244;SDS011;5167;52.164;10.530;2023-06-24T14:01:16;5.38;;;3.08;;
10244;SDS011;5167;52.164;10.530;2023-06-24T14:03:42;4.20;;;2.63;;
10244;SDS011;5167;52.164;10.530;2023-06-24T14:06:08;3.65;;;2.60;;
10244;SDS011;5167;52.164;10.530;2023-06-24T14:08:34;3.35;;;2.72;;
10244;SDS011;5167;52.164;10.530;2023-06-24T14:11:00;3.28;;;2.97;;
10244;SDS011;5167;52.164;10.530;2023-06-24T14:13:27;4.18;;;2.97;;
10244;SDS011;5167;52.164;10.530;2023-06-24T14:15:56;3.50;;;2.80;;
10244;SDS011;5167;52.164;10.530;2023-06-24T14:18:21;4.60;;;2.80;;
10244;SDS011;5167;52.164;10.530;2023-06-24T14:20:48;6.43;;;2.83;;
10244;SDS011;5167;52.164;10.530;2023-06-24T14:23:13;4.60;;;2.85;;
10244;SDS011;5167;52.164;10.530;2023-06-24T14:25:39;6.50;;;3.00;;
10244;SDS011;5167;52.164;10.530;2023-06-24T14:28:04;4.95;;;3.17;;
10244;SDS011;5167;52.164;10.530;2023-06-24T14:30:31;6.03;;;3.42;;
10244;SDS011;5167;52.164;10.530;2023-06-24T14:32:56;2.97;;;2.67;;
10244;SDS011;5167;52.164;10.530;2023-06-24T14:35:22;4.65;;;3.42;;
10244;SDS011;5167;52.164;10.530;2023-06-24T14:37:48;3.10;;;2.80;;
10244;SDS011;5167;52.164;10.530;2023-06-24T14:40:13;7.40;;;3.38;;
10244;SDS011;5167;52.164;10.530;2023-06-24T14:42:39;4.53;;;3.05;;
10244;SDS011;5167;52.164;10.530;2023-06-24T14:45:04;4.35;;;3.05;;
10244;SDS011;5167;52.164;10.530;2023-06-24T14:47:30;3.40;;;2.72;;
10244;SDS011;5167;52.164;10.530;2023-06-24T14:49:56;4.32;;;2.85;;
10244;SDS011;5167;52.164;10.530;2023-06-24T14:52:22;5.70;;;3.33;;
10244;SDS011;5167;52.164;10.530;2023-06-24T14:54:47;4.07;;;3.10;;
10244;SDS011;5167;52.164;10.530;2023-06-24T14:57:13;4.65;;;3.25;;
10244;SDS011;5167;52.164;10.530;2023-06-24T14:59:40;6.07;;;3.30;;